Bermuda Dunes, California
Current Conditions -  °F | °C
As of 11:52 AM on Sunday 25 Jan 2015 (Local Time) from KTRM Reporting Station
Clear Clear  
Wind Chill: 81°   Ceiling: Unl
Heat Index: 81°   Visibility: 10mi
Dew Point: 24°   Wind: 6mph
Humidity: 12%   Direction: 320°NW
Pressure: 30.05"   Gusts: NA
Location:  33.7719°N, 116.279°W
Report Text: KTRM 251952Z AUTO 32005KT 10SM CLR 27/M04 A3005 RMK AO2 SLP176 T02721044 TSNO
Loading
Personal Weather Stations






























Interactive Weather Map New forecast layout! Learn more

10-Day Weather Forecast

Advertisements
Track Severe Weather on mobile